createdAt,value
2019-05-22T00:09:28.936Z,98.10
2019-05-22T00:19:30.889Z,98.20
2019-05-22T00:29:33.241Z,98.10
2019-05-22T00:39:34.884Z,98.30
2019-05-22T00:49:39.446Z,98.80
2019-05-22T00:59:45.548Z,99.00
2019-05-22T01:09:50.724Z,98.90
2019-05-22T01:19:54.183Z,98.70
2019-05-22T01:29:56.515Z,98.80
2019-05-22T01:40:02.042Z,98.90
2019-05-22T01:50:05.983Z,99.10
2019-05-22T02:00:08.928Z,99.20
2019-05-22T02:10:31.241Z,99.00
2019-05-22T02:20:33.200Z,97.50
2019-05-22T02:30:35.381Z,97.20
2019-05-22T02:40:41.939Z,96.30
2019-05-22T02:50:46.077Z,96.70
2019-05-22T03:00:58.539Z,96.80
2019-05-22T03:11:02.360Z,96.50
2019-05-22T03:21:04.740Z,97.10
2019-05-22T03:31:08.281Z,96.80
2019-05-22T03:41:12.318Z,96.90
2019-05-22T03:51:17.751Z,96.80
2019-05-22T04:01:21.206Z,98.00
2019-05-22T04:11:28.934Z,96.80
2019-05-22T04:21:30.576Z,99.40
2019-05-22T04:31:59.545Z,98.90
2019-05-22T04:42:01.588Z,96.80
2019-05-22T04:52:03.847Z,96.80
2019-05-22T05:02:06.975Z,96.10
2019-05-22T05:12:09.010Z,95.10
2019-05-22T05:22:16.578Z,95.70
2019-05-22T05:32:18.411Z,95.60
2019-05-22T05:42:19.878Z,94.10
2019-05-22T05:52:23.469Z,95.40
2019-05-22T06:02:25.255Z,93.80
2019-05-22T06:12:26.902Z,92.90
2019-05-22T06:22:28.750Z,90.40
2019-05-22T06:32:55.217Z,91.50
2019-05-22T06:43:24.093Z,90.10
2019-05-22T06:53:26.116Z,87.30
2019-05-22T07:03:28.100Z,84.20
2019-05-22T07:13:30.531Z,79.10
2019-05-22T07:23:33.955Z,71.30
2019-05-22T07:33:35.602Z,66.80
2019-05-22T07:43:41.221Z,57.80
2019-05-22T07:53:40.799Z,48.50
2019-05-22T08:03:44.239Z,44.30
2019-05-22T08:13:46.575Z,41.10
2019-05-22T08:23:48.910Z,35.10
2019-05-22T08:33:51.205Z,30.90
2019-05-22T08:44:14.370Z,30.00
2019-05-22T08:53:58.095Z,26.50
2019-05-22T09:04:00.153Z,22.70
2019-05-22T09:14:02.031Z,16.60
2019-05-22T09:24:07.910Z,19.60
2019-05-22T09:34:09.829Z,17.80
2019-05-22T09:44:15.321Z,14.50
2019-05-22T09:54:15.846Z,12.90
2019-05-22T10:04:17.511Z,13.30
2019-05-22T10:14:21.140Z,12.70
2019-05-22T10:24:23.132Z,12.80
2019-05-22T10:34:27.553Z,12.60
2019-05-22T10:44:29.529Z,9.50
2019-05-22T10:54:31.483Z,9.90
2019-05-22T11:04:35.163Z,11.30
2019-05-22T11:14:37.321Z,9.60
2019-05-22T11:24:39.229Z,9.80
2019-05-22T11:34:40.996Z,12.40
2019-05-22T11:44:42.724Z,18.80
2019-05-22T11:54:44.562Z,21.90
2019-05-22T12:04:48.728Z,26.50
2019-05-22T12:14:50.466Z,30.50
2019-05-22T12:24:52.281Z,32.90
2019-05-22T12:34:54.326Z,29.80
2019-05-22T12:44:56.317Z,31.00
2019-05-22T12:54:59.648Z,33.40
2019-05-22T13:05:01.303Z,33.50
2019-05-22T13:15:09.964Z,30.40
2019-05-22T13:25:10.229Z,35.00
2019-05-22T13:35:14.506Z,35.80
2019-05-22T13:45:28.569Z,35.30
2019-05-22T13:55:20.745Z,39.10
2019-05-22T14:05:23.266Z,38.20
2019-05-22T14:15:25.108Z,40.80
2019-05-22T14:25:27.438Z,42.60
2019-05-22T14:35:46.990Z,47.00
2019-05-22T14:45:35.624Z,45.30
2019-05-22T14:55:38.224Z,41.30
2019-05-22T15:05:40.112Z,44.10
2019-05-22T15:15:41.842Z,43.80
2019-05-22T15:25:43.689Z,45.30
2019-05-22T15:35:45.649Z,41.50
2019-05-22T15:45:47.788Z,40.50
2019-05-22T15:55:50.145Z,39.40
2019-05-22T16:05:52.960Z,37.00
2019-05-22T16:15:56.269Z,40.30
2019-05-22T16:25:58.669Z,40.70
2019-05-22T16:36:05.101Z,40.00
2019-05-22T16:46:09.365Z,44.10
2019-05-22T16:56:11.302Z,42.90
2019-05-22T17:06:13.133Z,43.30
2019-05-22T17:16:15.551Z,45.60
2019-05-22T17:26:17.337Z,46.00
2019-05-22T17:36:20.460Z,44.90
2019-05-22T17:46:23.303Z,46.40
2019-05-22T17:56:25.467Z,46.80
2019-05-22T18:06:27.357Z,45.10
2019-05-22T18:16:30.418Z,45.30
2019-05-22T18:26:32.169Z,45.90
2019-05-22T18:36:33.940Z,48.20
2019-05-22T18:46:35.403Z,51.70
2019-05-22T18:56:36.980Z,56.30
2019-05-22T19:06:38.772Z,59.80
2019-05-22T19:16:40.351Z,65.60
2019-05-22T19:26:43.596Z,71.60
2019-05-22T19:36:45.071Z,74.10
2019-05-22T19:46:47.728Z,78.60
2019-05-22T19:56:49.779Z,81.50
2019-05-22T20:06:51.722Z,86.40
2019-05-22T20:16:54.320Z,88.60
2019-05-22T20:26:56.070Z,89.50
2019-05-22T20:36:58.006Z,90.10
2019-05-22T20:47:02.788Z,90.80
2019-05-22T20:57:05.316Z,92.00
2019-05-22T21:07:09.368Z,92.60
2019-05-22T21:17:11.546Z,93.00
2019-05-22T21:27:13.760Z,93.60
2019-05-22T21:37:17.292Z,93.70
2019-05-22T21:47:19.578Z,93.40
2019-05-22T21:57:22.325Z,93.70
2019-05-22T22:07:25.841Z,94.30
2019-05-22T22:17:29.221Z,95.10
2019-05-22T22:27:31.785Z,95.30
2019-05-22T22:37:35.221Z,95.30
2019-05-22T22:47:39.041Z,95.90
2019-05-22T22:57:41.560Z,96.80
2019-05-22T23:07:43.491Z,98.10
2019-05-22T23:17:47.044Z,97.30
2019-05-22T23:27:50.686Z,97.00
2019-05-22T23:37:52.367Z,97.30
2019-05-22T23:48:02.913Z,97.30
2019-05-22T23:58:06.835Z,97.20
